Decoded Metar for UBBN (NAKHCHIVAN in AZERBAIJAN) (IATA:N/A) | Meteo·Mobile Aviation Weather
aviador You're here:

UBBN Decoded Metar

NAKHCHIVAN in AZERBAIJAN
Report Time2019-07-19 19:00:00
UTC Time2019-07-19 19:25:52
Flight Rules vfr VFR
Wind110° at 14 Gusting to 24 kt
W.Decomp.*RWY 14: 11.7 kt HW 7.6 kt LCW
Visibility9999 m
Phenomena:N/A
Clouds:N/A
Expected CloudBase > 7,200 ft AGL from Temp-Dew spread
CeilingNone
Temp29°C (ISA +25)
Dew Point11°C (33% RH)
Heat Index28.1°C
AAT24.3°C
QNH1009 hPa
Density Alt8,822 ft
Elevation5,653 ft
Report Wrong Elevation
Raw Report
UBBN 191900Z 11014G24KT 9999 NSC 29/11 Q1009 R14R/CLRD// NOSIG RMK
MT OP QFE682=

Extra information for UBBN:More info

Metar Taf Metar & Taf Last 4 Metars F.Rules Stats Wind Profile Meteogram Temp Stats Airport Information Weather charts Add Link Nearby VenuesMetar ALERT Operation Metar Decoded Social comments